Time;durP1;ratioP1;P1;durP2;ratioP2;P2;SDS_P1;SDS_P2;PMS_P1;PMS_P2;Temp;Humidity;BMP_temperature;BMP_pressure;BME280_temperature;BME280_humidity;BME280_pressure;Samples;Min_cycle;Max_cycle;Signal;HPM_P1;HPM_P2
2022/09/03 00:00:56;;;;;;;6.63;5.60;;;;;;;16.11;100.00;94436.47;5012410;28;20186;-64
2022/09/03 00:03:34;;;;;;;6.22;5.00;;;;;;;16.10;100.00;94435.66;5029859;28;20221;-65
2022/09/03 00:06:16;;;;;;;7.25;5.30;;;;;;;16.14;100.00;94444.63;5030447;28;20178;-63
2022/09/03 00:09:12;;;;;;;8.02;6.13;;;;;;;16.15;100.00;94446.22;5012648;28;20210;-64
2022/09/03 00:14:38;;;;;;;5.75;5.03;;;;;;;16.10;100.00;94447.72;5041402;22;20329;-64
2022/09/03 00:17:36;;;;;;;7.97;5.78;;;;;;;16.18;100.00;94450.22;5012334;28;20190;-63
2022/09/03 00:20:14;;;;;;;7.07;5.88;;;;;;;16.10;100.00;94453.63;5029947;28;20222;-64
2022/09/03 00:22:45;;;;;;;9.32;6.30;;;;;;;16.10;100.00;94440.78;5015382;28;20241;-64
2022/09/03 00:25:17;;;;;;;8.10;5.93;;;;;;;16.18;100.00;94445.88;5033617;28;20630;-64
2022/09/03 00:27:49;;;;;;;7.75;5.88;;;;;;;16.16;100.00;94444.47;5033730;28;20197;-63
2022/09/03 00:30:16;;;;;;;7.45;6.63;;;;;;;16.09;100.00;94438.41;5015851;28;20682;-62
2022/09/03 00:32:48;;;;;;;6.53;5.75;;;;;;;16.13;100.00;94455.84;5033928;28;20186;-62
2022/09/03 00:35:25;;;;;;;8.82;5.80;;;;;;;16.13;100.00;94443.03;5045132;22;20236;-62
2022/09/03 00:37:52;;;;;;;9.48;5.70;;;;;;;16.11;100.00;94441.59;5033526;28;20189;-64
2022/09/03 00:40:55;;;;;;;8.52;5.80;;;;;;;16.14;100.00;94444.63;5033665;28;20241;-62
2022/09/03 00:43:37;;;;;;;6.38;5.10;;;;;;;16.10;100.00;94443.34;4985243;28;20253;-61
2022/09/03 00:46:11;;;;;;;7.13;5.68;;;;;;;16.07;100.00;94437.78;5034009;28;20712;-66
2022/09/03 00:48:49;;;;;;;9.00;5.90;;;;;;;15.98;100.00;94443.91;5016303;28;20283;-63
2022/09/03 00:51:38;;;;;;;6.50;5.80;;;;;;;15.96;100.00;94439.75;5034257;28;20190;-63
2022/09/03 00:54:14;;;;;;;7.18;6.25;;;;;;;15.91;100.00;94438.66;5015417;28;20288;-63
2022/09/03 00:57:04;;;;;;;8.57;6.45;;;;;;;15.88;100.00;94451.78;5033087;28;20279;-62
2022/09/03 00:59:48;;;;;;;7.07;5.93;;;;;;;15.87;100.00;94450.22;5015601;28;20742;-65
2022/09/03 01:02:35;;;;;;;5.97;5.38;;;;;;;15.89;100.00;94450.84;5033097;28;20265;-66
2022/09/03 01:05:07;;;;;;;7.95;6.05;;;;;;;15.91;100.00;94441.22;5015972;28;20233;-66
2022/09/03 01:07:45;;;;;;;8.55;6.45;;;;;;;15.94;100.00;94435.75;5033922;28;20194;-65
2022/09/03 01:10:33;;;;;;;8.18;6.18;;;;;;;15.92;100.00;94440.25;5015056;28;20300;-66
2022/09/03 01:13:15;;;;;;;8.43;6.50;;;;;;;15.96;100.00;94444.06;5033443;28;20252;-65
2022/09/03 01:16:21;;;;;;;7.63;5.53;;;;;;;15.92;100.00;94438.47;5015271;28;20287;-64
2022/09/03 01:18:54;;;;;;;6.90;5.90;;;;;;;15.96;100.00;94449.19;5014884;28;20218;-64
2022/09/03 01:21:57;;;;;;;7.25;5.60;;;;;;;15.87;100.00;94440.75;5015421;28;20202;-65
2022/09/03 01:24:58;;;;;;;6.20;5.60;;;;;;;15.83;100.00;94433.56;5033470;28;20232;-64
2022/09/03 01:27:49;;;;;;;7.63;5.90;;;;;;;15.91;100.00;94442.03;5014308;28;20190;-65
2022/09/03 01:30:18;;;;;;;7.88;5.13;;;;;;;15.81;100.00;94444.00;5014607;28;20323;-65
2022/09/03 01:33:25;;;;;;;7.23;5.83;;;;;;;15.85;100.00;94449.56;5031572;28;20616;-65
2022/09/03 01:36:02;;;;;;;7.18;6.28;;;;;;;15.83;100.00;94457.44;5033070;28;20193;-64
2022/09/03 01:38:50;;;;;;;7.32;5.95;;;;;;;15.74;100.00;94470.44;5050319;22;20242;-63
2022/09/03 01:44:39;;;;;;;6.57;5.47;;;;;;;15.62;100.00;94458.94;5033117;28;20730;-63
2022/09/03 01:47:30;;;;;;;7.00;5.75;;;;;;;15.65;100.00;94468.88;5032594;28;20255;-62
2022/09/03 01:50:05;;;;;;;6.95;6.13;;;;;;;15.66;100.00;94466.13;5011686;22;20237;-64
2022/09/03 01:53:16;;;;;;;7.18;5.88;;;;;;;15.64;100.00;94457.81;5040600;22;20185;-65
2022/09/03 01:56:18;;;;;;;8.60;6.30;;;;;;;15.67;100.00;94459.25;4989755;28;20211;-65
2022/09/03 01:59:19;;;;;;;11.18;6.75;;;;;;;15.66;100.00;94460.22;5012830;28;20252;-66
2022/09/03 02:02:20;;;;;;;9.10;5.80;;;;;;;15.70;100.00;94459.72;4994133;28;20254;-64
2022/09/03 02:05:02;;;;;;;7.78;6.03;;;;;;;15.67;100.00;94451.56;5031310;22;20229;-63
2022/09/03 02:07:45;;;;;;;7.00;5.50;;;;;;;15.67;100.00;94449.81;5032760;28;20190;-65
2022/09/03 02:10:15;;;;;;;6.20;5.43;;;;;;;15.72;100.00;94450.09;5032007;28;20206;-64
2022/09/03 02:12:48;;;;;;;8.48;6.32;;;;;;;15.77;100.00;94452.19;5031868;28;20197;-65
2022/09/03 02:15:17;;;;;;;8.15;6.50;;;;;;;15.81;100.00;94461.94;5032671;28;20683;-65
2022/09/03 02:17:46;;;;;;;8.00;6.20;;;;;;;15.83;100.00;94472.03;5032867;28;20248;-65
2022/09/03 02:20:20;;;;;;;6.95;6.25;;;;;;;15.74;100.00;94467.88;5031498;28;20735;-64
2022/09/03 02:22:48;;;;;;;7.18;6.20;;;;;;;15.73;100.00;94466.28;5032844;28;20206;-63
2022/09/03 02:25:15;;;;;;;7.20;5.45;;;;;;;15.72;100.00;94467.22;5032198;28;20210;-62
2022/09/03 02:27:42;;;;;;;8.40;6.35;;;;;;;15.73;100.00;94463.72;5014807;28;20659;-63
2022/09/03 02:30:09;;;;;;;6.90;5.88;;;;;;;15.77;100.00;94470.91;5031665;28;20210;-66
2022/09/03 02:32:35;;;;;;;6.50;5.60;;;;;;;15.72;100.00;94462.91;5014469;28;20194;-62
2022/09/03 02:35:01;;;;;;;6.28;5.68;;;;;;;15.72;100.00;94470.59;5031746;28;20355;-65
2022/09/03 02:37:27;;;;;;;6.65;5.95;;;;;;;15.71;100.00;94471.59;5032343;28;20182;-65
2022/09/03 02:39:54;;;;;;;8.25;6.82;;;;;;;15.69;100.00;94470.94;5032488;28;20237;-67
2022/09/03 02:42:20;;;;;;;7.32;6.03;;;;;;;15.69;100.00;94473.50;5032945;28;20640;-64
2022/09/03 02:45:08;;;;;;;8.35;6.28;;;;;;;15.65;100.00;94471.44;5013792;28;20226;-64
2022/09/03 02:47:36;;;;;;;7.20;5.80;;;;;;;15.69;100.00;94477.84;5013521;28;20212;-64
2022/09/03 02:50:01;;;;;;;8.55;6.50;;;;;;;15.65;100.00;94476.56;5031352;28;20318;-64
2022/09/03 02:52:28;;;;;;;9.07;6.75;;;;;;;15.66;100.00;94481.50;5031335;28;20204;-66
2022/09/03 02:54:53;;;;;;;6.65;5.95;;;;;;;15.66;100.00;94480.72;5031211;28;20300;-63
2022/09/03 02:57:19;;;;;;;6.72;5.85;;;;;;;15.66;100.00;94488.41;5013481;28;20221;-67
2022/09/03 02:59:45;;;;;;;9.05;6.75;;;;;;;15.64;100.00;94488.56;5013157;28;20683;-66
2022/09/03 03:02:13;;;;;;;8.00;6.10;;;;;;;15.55;100.00;94481.88;5013626;28;20198;-64
2022/09/03 03:04:39;;;;;;;8.73;6.53;;;;;;;15.52;100.00;94492.44;4997664;28;20222;-65
2022/09/03 03:07:07;;;;;;;7.57;6.57;;;;;;;15.49;100.00;94490.22;5031629;28;20197;-63
2022/09/03 03:09:33;;;;;;;8.93;6.20;;;;;;;15.51;100.00;94479.81;5032074;28;20595;-66
2022/09/03 03:11:59;;;;;;;7.75;6.32;;;;;;;15.51;100.00;94485.72;5031082;28;20191;-63
2022/09/03 03:14:25;;;;;;;7.65;6.53;;;;;;;15.53;100.00;94485.56;5031771;28;20210;-64
2022/09/03 03:16:51;;;;;;;8.47;6.77;;;;;;;15.54;100.00;94482.03;5031283;28;20200;-64
2022/09/03 03:19:18;;;;;;;8.70;6.35;;;;;;;15.62;100.00;94469.19;5031054;28;20210;-66
2022/09/03 03:21:45;;;;;;;9.00;6.40;;;;;;;15.55;100.00;94473.38;5031199;28;20228;-65
2022/09/03 03:24:11;;;;;;;7.67;6.70;;;;;;;15.63;100.00;94481.06;5031262;28;20233;-65
2022/09/03 03:26:36;;;;;;;14.10;10.48;;;;;;;15.62;100.00;94480.25;5021460;22;20225;-64
2022/09/03 03:29:06;;;;;;;8.35;6.55;;;;;;;15.69;100.00;94477.84;5030912;28;20210;-66
2022/09/03 03:31:33;;;;;;;8.75;7.10;;;;;;;15.58;100.00;94476.41;5012930;28;20247;-63
2022/09/03 03:34:01;;;;;;;6.50;5.65;;;;;;;15.59;100.00;94480.59;5030978;28;20202;-65
2022/09/03 03:36:31;;;;;;;6.78;6.07;;;;;;;15.61;100.00;94488.09;5030922;28;20276;-65
2022/09/03 03:39:00;;;;;;;10.48;5.90;;;;;;;15.58;100.00;94483.28;5030964;28;20293;-65
2022/09/03 03:41:27;;;;;;;9.70;6.45;;;;;;;15.56;100.00;94477.53;5030887;28;20629;-67
2022/09/03 03:43:56;;;;;;;7.80;6.80;;;;;;;15.61;100.00;94478.66;5013194;28;20226;-63
2022/09/03 03:46:23;;;;;;;8.83;6.73;;;;;;;15.61;100.00;94488.91;5012998;28;20667;-64
2022/09/03 03:48:50;;;;;;;11.80;7.00;;;;;;;15.64;100.00;94485.19;5031246;28;20213;-64
2022/09/03 03:51:17;;;;;;;15.65;11.88;;;;;;;15.64;100.00;94482.63;5013240;28;20683;-66
2022/09/03 03:53:44;;;;;;;11.23;8.65;;;;;;;15.64;100.00;94477.50;5030872;28;20205;-64
2022/09/03 03:56:12;;;;;;;7.90;6.65;;;;;;;15.63;100.00;94484.41;5012315;28;20190;-65
2022/09/03 03:58:42;;;;;;;7.88;6.50;;;;;;;15.59;100.00;94479.78;5012629;28;20212;-64
2022/09/03 04:01:14;;;;;;;9.15;6.22;;;;;;;15.58;100.00;94490.97;5030444;28;20732;-61
2022/09/03 04:03:41;;;;;;;10.43;8.75;;;;;;;15.60;100.00;94491.63;5013040;28;20525;-67
2022/09/03 04:06:09;;;;;;;8.82;6.15;;;;;;;15.60;100.00;94489.88;5030334;28;20406;-66
2022/09/03 04:08:36;;;;;;;6.85;5.95;;;;;;;15.62;100.00;94490.50;5012353;28;20206;-64
2022/09/03 04:11:04;;;;;;;8.23;5.85;;;;;;;15.61;100.00;94482.97;5030082;28;20190;-64
2022/09/03 04:13:34;;;;;;;7.07;6.38;;;;;;;15.61;100.00;94482.97;5030997;28;20293;-65
2022/09/03 04:16:02;;;;;;;8.27;6.20;;;;;;;15.60;100.00;94481.38;5012071;28;20294;-65
2022/09/03 04:18:29;;;;;;;7.07;6.37;;;;;;;15.65;100.00;94491.94;5030596;28;20242;-66
2022/09/03 04:23:29;;;;;;;8.05;6.78;;;;;;;15.60;100.00;94489.06;5062568;22;20671;-67
2022/09/03 04:25:56;;;;;;;9.85;6.53;;;;;;;15.57;100.00;94492.78;5096927;22;20237;-66
2022/09/03 04:28:22;;;;;;;8.20;6.57;;;;;;;15.58;100.00;94496.09;5031967;28;20190;-67
2022/09/03 04:33:12;;;;;;;10.10;7.25;;;;;;;15.64;100.00;94495.44;5053103;22;20623;-65
2022/09/03 04:35:40;;;;;;;8.43;6.55;;;;;;;15.71;100.00;94506.66;5046934;22;20229;-67
2022/09/03 04:38:06;;;;;;;7.75;6.43;;;;;;;15.70;100.00;94512.72;5045544;22;20777;-64
2022/09/03 04:40:33;;;;;;;9.47;7.70;;;;;;;15.68;100.00;94505.22;5030511;28;20287;-67
2022/09/03 04:42:59;;;;;;;11.48;7.43;;;;;;;15.76;100.00;94514.63;5013823;28;20218;-67
2022/09/03 04:45:25;;;;;;;10.43;6.70;;;;;;;15.73;100.00;94518.34;5038295;22;20230;-63
2022/09/03 04:48:02;;;;;;;8.45;6.07;;;;;;;15.69;100.00;94516.28;5030212;28;20269;-65
2022/09/03 04:50:29;;;;;;;9.73;6.88;;;;;;;15.70;100.00;94512.72;5030538;28;20237;-65
2022/09/03 04:53:01;;;;;;;9.90;7.13;;;;;;;15.73;100.00;94515.78;5045149;22;20253;-66
2022/09/03 04:55:32;;;;;;;14.35;8.50;;;;;;;15.71;100.00;94527.16;5012063;28;20225;-65
2022/09/03 04:57:58;;;;;;;9.57;7.17;;;;;;;15.67;100.00;94523.31;5029954;28;20190;-65
2022/09/03 05:00:24;;;;;;;9.10;6.83;;;;;;;15.69;100.00;94534.22;5029487;28;20218;-66
2022/09/03 05:02:50;;;;;;;8.25;6.97;;;;;;;15.73;100.00;94532.94;4996087;28;20224;-65
2022/09/03 05:05:19;;;;;;;9.98;7.35;;;;;;;15.75;100.00;94534.38;5029561;28;20214;-64
2022/09/03 05:07:45;;;;;;;10.32;7.75;;;;;;;15.72;100.00;94541.56;5031251;28;20273;-65
2022/09/03 05:10:19;;;;;;;9.40;7.38;;;;;;;15.71;100.00;94545.09;5022692;22;20229;-63
2022/09/03 05:12:56;;;;;;;10.30;7.00;;;;;;;15.73;100.00;94548.31;5033453;28;20216;-64
2022/09/03 05:15:22;;;;;;;8.40;6.88;;;;;;;15.64;100.00;94544.94;5015021;28;20217;-66
2022/09/03 05:17:51;;;;;;;11.00;7.68;;;;;;;15.67;100.00;94541.28;5033441;28;20183;-64
2022/09/03 05:20:17;;;;;;;9.20;7.00;;;;;;;15.64;100.00;94546.69;5033727;28;20672;-64
2022/09/03 05:22:42;;;;;;;8.90;6.65;;;;;;;15.84;100.00;94538.50;5033347;28;20506;-65
2022/09/03 05:25:08;;;;;;;7.07;6.30;;;;;;;15.76;100.00;94553.91;5032939;28;20229;-66
2022/09/03 05:27:33;;;;;;;7.68;6.18;;;;;;;15.68;100.00;94545.41;5032908;28;20683;-63
2022/09/03 05:29:59;;;;;;;9.00;6.13;;;;;;;15.77;100.00;94554.69;5054288;22;20226;-66
2022/09/03 05:32:26;;;;;;;7.65;5.88;;;;;;;15.75;100.00;94548.94;5033384;28;20571;-65
2022/09/03 05:35:00;;;;;;;9.07;6.17;;;;;;;15.73;100.00;94541.41;5032543;28;20218;-63
2022/09/03 05:37:26;;;;;;;8.85;5.90;;;;;;;15.74;100.00;94543.00;5032523;28;20219;-65
2022/09/03 05:39:52;;;;;;;7.15;5.85;;;;;;;15.66;100.00;94547.34;5014877;28;20221;-66
2022/09/03 05:42:19;;;;;;;6.53;5.80;;;;;;;15.66;100.00;94555.84;5032576;28;20185;-64
2022/09/03 05:44:44;;;;;;;10.35;7.15;;;;;;;15.76;100.00;94558.22;5032421;28;20253;-64
2022/09/03 05:47:10;;;;;;;6.75;5.93;;;;;;;15.80;100.00;94560.28;5032904;28;20190;-65
2022/09/03 05:49:38;;;;;;;11.18;7.65;;;;;;;15.95;100.00;94563.00;5032417;28;20214;-64
2022/09/03 05:52:05;;;;;;;9.95;6.50;;;;;;;15.92;100.00;94576.13;5014841;28;20216;-64
2022/09/03 05:54:32;;;;;;;8.10;6.60;;;;;;;15.79;100.00;94571.53;5014605;28;20221;-65
2022/09/03 05:56:58;;;;;;;8.20;6.95;;;;;;;15.82;100.00;94568.63;5032390;28;20209;-63
2022/09/03 06:02:13;;;;;;;7.28;6.30;;;;;;;15.92;100.00;94565.88;5032610;28;20229;-63
2022/09/03 06:04:39;;;;;;;9.05;6.60;;;;;;;15.97;100.00;94571.31;5015287;28;20222;-66
2022/09/03 06:07:05;;;;;;;7.32;6.13;;;;;;;16.02;100.00;94584.44;5032913;28;20201;-64
2022/09/03 06:09:31;;;;;;;7.55;6.43;;;;;;;15.99;100.00;94587.34;5032310;28;20210;-64
2022/09/03 06:11:56;;;;;;;7.38;6.18;;;;;;;16.06;100.00;94582.34;5032586;28;20632;-65
2022/09/03 06:14:22;;;;;;;7.07;6.15;;;;;;;16.03;100.00;94574.97;5017942;23;20226;-67
2022/09/03 06:16:49;;;;;;;6.07;5.07;;;;;;;16.09;100.00;94593.09;5012178;28;20558;-64
2022/09/03 06:19:15;;;;;;;8.10;6.63;;;;;;;16.28;100.00;94576.53;5032749;22;20217;-65
2022/09/03 06:21:43;;;;;;;8.40;5.75;;;;;;;16.31;100.00;94589.00;5031607;28;20240;-66
2022/09/03 06:24:10;;;;;;;7.45;5.80;;;;;;;16.36;100.00;94590.09;5038870;22;20713;-66
2022/09/03 06:26:36;;;;;;;6.57;5.53;;;;;;;16.33;100.00;94593.00;5031440;28;20656;-66
2022/09/03 06:29:03;;;;;;;6.78;6.07;;;;;;;16.19;100.00;94591.13;5013808;28;20270;-65
2022/09/03 06:31:29;;;;;;;7.13;5.90;;;;;;;16.21;100.00;94608.91;5032078;28;20186;-63
2022/09/03 06:33:54;;;;;;;8.27;6.00;;;;;;;16.19;100.00;94606.53;5031500;28;20700;-61
2022/09/03 06:36:22;;;;;;;10.30;6.30;;;;;;;16.21;100.00;94604.59;5031573;28;20181;-65
2022/09/03 06:38:51;;;;;;;7.95;6.45;;;;;;;16.24;100.00;94600.91;5013550;28;20239;-66
2022/09/03 06:41:19;;;;;;;6.28;5.68;;;;;;;16.32;100.00;94606.78;5031296;28;20197;-64
2022/09/03 06:43:47;;;;;;;10.48;6.75;;;;;;;16.53;100.00;94599.38;5014145;28;20636;-66
2022/09/03 06:46:15;;;;;;;9.80;6.18;;;;;;;16.82;100.00;94608.22;5031667;28;20186;-64
2022/09/03 06:48:41;;;;;;;8.20;6.78;;;;;;;16.80;100.00;94626.38;5014750;28;20203;-63
2022/09/03 06:51:25;;;;;;;7.78;5.70;;;;;;;16.77;100.00;94619.78;5014324;28;20182;-63
2022/09/03 06:54:03;;;;;;;7.90;6.82;;;;;;;16.62;100.00;94621.44;5014365;28;20241;-65
2022/09/03 06:56:28;;;;;;;7.75;6.95;;;;;;;16.58;100.00;94604.78;5013268;28;20190;-66
2022/09/03 06:58:56;;;;;;;8.05;6.80;;;;;;;16.53;100.00;94591.66;5031352;28;20210;-63
2022/09/03 07:01:29;;;;;;;9.70;7.20;;;;;;;16.56;100.00;94604.16;5031004;28;20216;-67
2022/09/03 07:04:00;;;;;;;7.68;6.78;;;;;;;16.62;100.00;94606.06;5013286;28;20314;-64
2022/09/03 07:06:31;;;;;;;9.18;7.40;;;;;;;16.74;100.00;94609.88;5030967;28;20214;-66
2022/09/03 07:08:59;;;;;;;6.97;6.28;;;;;;;16.91;100.00;94612.34;5031112;28;20202;-66
2022/09/03 07:11:28;;;;;;;9.02;6.88;;;;;;;16.89;100.00;94617.63;5013114;28;20197;-63
2022/09/03 07:13:54;;;;;;;12.50;7.00;;;;;;;16.90;100.00;94616.69;5030804;28;20218;-64
2022/09/03 07:16:23;;;;;;;8.35;6.90;;;;;;;16.98;100.00;94623.53;5030960;28;20190;-62
2022/09/03 07:18:50;;;;;;;8.90;6.45;;;;;;;17.00;100.00;94629.31;5030702;28;20241;-62
2022/09/03 07:21:18;;;;;;;8.98;7.75;;;;;;;17.02;100.00;94624.78;5031041;28;20186;-63
2022/09/03 07:23:45;;;;;;;9.95;6.90;;;;;;;17.12;100.00;94626.19;5030909;28;20245;-63
2022/09/03 07:26:15;;;;;;;9.50;7.22;;;;;;;16.99;100.00;94625.16;5030725;28;20189;-62
2022/09/03 07:28:44;;;;;;;7.63;6.60;;;;;;;17.06;100.00;94626.06;5030945;28;20198;-62
2022/09/03 07:31:32;;;;;;;12.95;7.63;;;;;;;16.97;100.00;94645.84;5029612;28;20190;-62
2022/09/03 07:34:02;;;;;;;10.35;8.20;;;;;;;17.04;100.00;94628.00;5030624;28;20244;-62
2022/09/03 07:36:29;;;;;;;10.32;8.38;;;;;;;17.02;100.00;94640.22;5013740;28;20186;-61
2022/09/03 07:38:56;;;;;;;8.93;7.38;;;;;;;16.96;100.00;94643.44;5012844;28;20249;-61
2022/09/03 07:41:25;;;;;;;8.27;7.03;;;;;;;17.01;100.00;94649.66;5030676;28;20286;-63
2022/09/03 07:43:51;;;;;;;7.97;7.18;;;;;;;17.18;100.00;94655.53;5030297;28;20282;-63
2022/09/03 07:46:22;;;;;;;8.23;5.95;;;;;;;17.23;100.00;94666.88;5030482;28;20261;-65
2022/09/03 07:48:49;;;;;;;8.20;7.38;;;;;;;17.34;100.00;94665.69;5030842;28;20218;-61
2022/09/03 07:51:16;;;;;;;7.75;6.60;;;;;;;17.49;100.00;94675.09;5030571;28;20261;-62
2022/09/03 07:53:43;;;;;;;6.65;5.95;;;;;;;17.50;100.00;94670.75;5030232;28;20225;-64
2022/09/03 07:56:10;;;;;;;7.43;6.43;;;;;;;17.65;100.00;94689.63;5030526;28;20190;-63
2022/09/03 07:58:37;;;;;;;6.70;5.13;;;;;;;17.66;100.00;94706.66;5030370;28;20216;-62
2022/09/03 08:01:07;;;;;;;6.50;5.80;;;;;;;17.69;100.00;94706.31;5030358;28;20261;-62
2022/09/03 08:03:34;;;;;;;7.07;6.07;;;;;;;17.57;100.00;94685.31;5012131;28;20226;-62
2022/09/03 08:06:05;;;;;;;9.65;8.07;;;;;;;17.59;100.00;94669.75;4996216;28;20182;-63
2022/09/03 08:08:31;;;;;;;10.45;6.63;;;;;;;17.63;100.00;94678.72;5030091;28;20225;-63
2022/09/03 08:11:10;;;;;;;9.48;8.35;;;;;;;17.58;100.00;94679.22;5030250;28;20193;-61
2022/09/03 08:13:37;;;;;;;9.88;7.57;;;;;;;17.65;100.00;94674.22;5030442;28;20217;-62
2022/09/03 08:16:04;;;;;;;7.55;6.75;;;;;;;17.73;100.00;94674.16;5030167;28;20190;-63
2022/09/03 08:18:36;;;;;;;7.60;6.78;;;;;;;17.67;100.00;94676.59;5030330;28;20719;-63
2022/09/03 08:21:06;;;;;;;8.68;6.80;;;;;;;17.72;100.00;94669.97;5030123;28;20660;-61
2022/09/03 08:23:36;;;;;;;7.47;6.68;;;;;;;17.81;100.00;94688.72;5030051;28;20241;-64
2022/09/03 08:26:03;;;;;;;7.25;6.20;;;;;;;17.94;100.00;94704.34;5012369;28;20188;-63
2022/09/03 08:28:29;;;;;;;6.78;5.85;;;;;;;18.16;100.00;94706.13;5030128;28;20280;-62
2022/09/03 08:30:55;;;;;;;9.23;7.68;;;;;;;18.43;100.00;94708.13;5012267;28;20277;-62
2022/09/03 08:33:35;;;;;;;5.85;5.30;;;;;;;18.68;100.00;94706.09;5012245;28;20218;-62
2022/09/03 08:36:13;;;;;;;6.03;5.28;;;;;;;18.95;100.00;94757.78;5030043;28;20201;-61
2022/09/03 08:38:42;;;;;;;6.45;5.65;;;;;;;18.86;100.00;94758.88;5030206;28;20198;-63
2022/09/03 08:41:20;;;;;;;8.73;6.03;;;;;;;19.02;100.00;94757.88;5029782;28;20229;-62
2022/09/03 08:43:51;;;;;;;9.63;7.40;;;;;;;19.14;100.00;94726.34;5033028;28;20222;-64
2022/09/03 08:46:17;;;;;;;7.80;6.40;;;;;;;19.02;100.00;94735.50;5033406;28;20261;-64
2022/09/03 08:48:43;;;;;;;6.88;5.28;;;;;;;19.17;100.00;94735.47;5033264;28;20229;-62
2022/09/03 08:51:11;;;;;;;5.07;4.68;;;;;;;19.49;100.00;94757.50;5015481;28;20183;-64
2022/09/03 08:53:47;;;;;;;6.25;5.60;;;;;;;19.49;100.00;94753.16;5033289;28;20305;-63
2022/09/03 08:56:23;;;;;;;6.22;5.63;;;;;;;19.29;100.00;94729.66;5033595;28;20217;-62
2022/09/03 08:58:48;;;;;;;6.57;5.88;;;;;;;19.30;100.00;94735.63;5033289;28;20297;-63
2022/09/03 09:01:30;;;;;;;6.72;6.10;;;;;;;19.48;100.00;94737.84;5015420;28;20200;-62
2022/09/03 09:04:05;;;;;;;5.93;5.28;;;;;;;19.62;100.00;94765.38;5032951;28;20607;-65
2022/09/03 09:07:04;;;;;;;7.20;5.63;;;;;;;19.54;100.00;94760.31;5033023;28;20691;-61
2022/09/03 09:09:43;;;;;;;10.50;8.55;;;;;;;19.51;100.00;94740.06;5032962;28;20280;-62
2022/09/03 09:12:28;;;;;;;6.55;5.88;;;;;;;19.62;100.00;94729.25;5032766;28;20221;-62
2022/09/03 09:15:06;;;;;;;6.72;6.00;;;;;;;19.37;100.00;94748.63;5033192;28;20202;-62
2022/09/03 09:17:50;;;;;;;7.20;6.50;;;;;;;19.91;100.00;94755.78;5032723;28;20205;-62
2022/09/03 09:20:29;;;;;;;5.78;5.28;;;;;;;20.08;100.00;94793.25;5014900;28;20220;-61
2022/09/03 09:23:05;;;;;;;7.05;5.60;;;;;;;20.04;100.00;94748.13;5032549;28;20235;-63
2022/09/03 09:25:38;;;;;;;6.32;5.72;;;;;;;19.76;100.00;94774.84;5015083;28;20217;-62
2022/09/03 09:28:27;;;;;;;7.68;5.60;;;;;;;19.77;100.00;94779.84;5032784;28;20285;-62
2022/09/03 09:30:56;;;;;;;5.55;5.05;;;;;;;20.62;100.00;94774.69;5032432;28;20183;-63
2022/09/03 09:33:22;;;;;;;5.28;4.78;;;;;;;20.85;100.00;94834.66;5032250;28;20205;-62
2022/09/03 09:35:48;;;;;;;5.75;5.20;;;;;;;20.22;100.00;94824.41;5014545;28;20240;-62
2022/09/03 09:38:14;;;;;;;5.75;5.25;;;;;;;20.18;100.00;94792.94;5032374;28;20182;-63
2022/09/03 09:40:44;;;;;;;6.18;5.68;;;;;;;20.49;100.00;94780.53;5032316;28;20197;-64
2022/09/03 09:43:18;;;;;;;5.97;5.25;;;;;;;20.55;100.00;94760.91;5014393;28;20230;-66
2022/09/03 09:45:47;;;;;;;5.88;5.22;;;;;;;20.34;100.00;94797.88;5032173;28;20724;-63
2022/09/03 09:48:21;;;;;;;5.65;5.15;;;;;;;20.42;100.00;94791.81;5032216;28;20217;-62
2022/09/03 09:50:47;;;;;;;5.90;5.40;;;;;;;20.23;100.00;94797.59;5031931;28;20273;-61
2022/09/03 09:53:16;;;;;;;5.60;5.00;;;;;;;20.20;100.00;94775.50;5014031;28;20320;-62
2022/09/03 09:55:57;;;;;;;5.47;4.65;;;;;;;20.08;100.00;94782.13;5031824;28;20209;-61
2022/09/03 09:58:29;;;;;;;5.93;4.45;;;;;;;20.02;100.00;94770.75;5032024;28;20224;-62
2022/09/03 10:01:04;;;;;;;5.25;4.80;;;;;;;20.34;100.00;94774.63;5032067;28;20186;-62
2022/09/03 10:03:34;;;;;;;5.28;4.78;;;;;;;20.53;100.00;94801.63;5032045;28;20229;-62
2022/09/03 10:08:51;;;;;;;5.63;4.85;;;;;;;21.50;100.00;94814.41;5031941;28;20217;-60
2022/09/03 10:11:22;;;;;;;4.97;4.57;;;;;;;21.65;100.00;94886.75;5031633;28;20182;-62
2022/09/03 10:13:49;;;;;;;5.63;4.63;;;;;;;21.51;100.00;94875.50;5031460;28;20664;-60
2022/09/03 10:16:26;;;;;;;5.15;4.68;;;;;;;21.68;100.00;94858.69;5031555;28;20209;-62
2022/09/03 10:19:02;;;;;;;5.15;4.40;;;;;;;22.51;100.00;94863.53;5013535;28;20240;-61
2022/09/03 10:21:38;;;;;;;4.53;4.13;;;;;;;22.24;100.00;94903.31;5013627;28;20181;-62
2022/09/03 10:24:38;;;;;;;7.72;5.32;;;;;;;22.06;100.00;94830.56;5031129;28;20296;-62
2022/09/03 10:27:11;;;;;;;4.72;4.32;;;;;;;22.46;100.00;94858.13;5013893;28;20201;-61
2022/09/03 10:29:39;;;;;;;5.20;4.20;;;;;;;23.07;100.00;94853.59;5031361;28;20218;-62
2022/09/03 10:32:15;;;;;;;5.32;4.82;;;;;;;23.05;100.00;94853.00;5031231;28;20190;-62
2022/09/03 10:34:46;;;;;;;5.20;4.70;;;;;;;23.22;100.00;94892.28;5031519;28;20206;-63
2022/09/03 10:37:21;;;;;;;5.20;4.65;;;;;;;23.32;99.27;94927.25;5031661;28;20190;-63
2022/09/03 10:40:05;;;;;;;6.50;4.53;;;;;;;23.64;100.00;94907.44;5031267;28;20213;-63
2022/09/03 10:42:40;;;;;;;5.22;4.72;;;;;;;24.22;99.55;94910.84;5013281;28;20193;-64
2022/09/03 10:45:30;;;;;;;5.40;4.90;;;;;;;23.93;97.70;94927.75;5031168;28;20221;-62
2022/09/03 10:48:11;;;;;;;4.85;4.45;;;;;;;23.52;97.93;94901.28;5013401;28;20201;-63
2022/09/03 10:51:06;;;;;;;6.00;4.90;;;;;;;23.47;99.53;94863.94;5031019;28;20272;-65
2022/09/03 10:54:16;;;;;;;5.18;4.72;;;;;;;24.13;98.87;94896.50;4960273;28;20232;-62
2022/09/03 10:57:07;;;;;;;4.88;4.47;;;;;;;23.25;97.15;94897.88;5030833;28;20202;-62
2022/09/03 10:59:46;;;;;;;5.18;4.68;;;;;;;23.06;96.50;94909.06;5038453;22;20225;-62
2022/09/03 11:02:34;;;;;;;4.60;4.30;;;;;;;23.49;96.66;94893.09;5030992;28;20228;-62
2022/09/03 11:05:01;;;;;;;6.15;5.55;;;;;;;23.53;98.12;94863.94;5030875;28;20210;-65
2022/09/03 11:08:00;;;;;;;5.60;5.05;;;;;;;23.44;95.28;94911.88;5030968;28;20198;-62
2022/09/03 11:10:50;;;;;;;5.70;5.20;;;;;;;24.21;96.45;94883.28;5015091;28;20255;-63
2022/09/03 11:13:22;;;;;;;4.18;3.88;;;;;;;24.21;91.60;94982.03;5012977;28;20248;-61
2022/09/03 11:15:52;;;;;;;4.70;4.30;;;;;;;24.34;92.82;94945.56;5030646;28;20190;-62
2022/09/03 11:18:27;;;;;;;4.60;4.20;;;;;;;24.89;90.97;94970.94;5012682;28;20198;-63
2022/09/03 11:20:59;;;;;;;4.93;4.32;;;;;;;24.99;86.60;95031.09;5030786;28;20200;-62
2022/09/03 11:23:28;;;;;;;5.32;4.80;;;;;;;24.95;86.76;94998.72;5030651;28;20245;-62
2022/09/03 11:26:02;;;;;;;4.53;4.15;;;;;;;25.18;77.68;94995.56;5030554;28;20195;-62
2022/09/03 11:28:41;;;;;;;4.78;4.38;;;;;;;25.10;77.40;94984.59;5030524;28;20229;-62
2022/09/03 11:31:32;;;;;;;4.15;3.80;;;;;;;25.23;74.25;95031.38;5012942;28;20190;-62
2022/09/03 11:34:15;;;;;;;3.75;3.45;;;;;;;24.85;76.03;94969.75;5030279;28;20320;-63
2022/09/03 11:36:41;;;;;;;5.03;4.20;;;;;;;25.15;77.13;94938.72;5030349;28;20343;-62
2022/09/03 11:39:31;;;;;;;3.92;3.63;;;;;;;25.62;75.00;94966.00;5029953;28;20209;-64
2022/09/03 11:42:03;;;;;;;4.38;3.97;;;;;;;25.59;73.17;94982.06;5030386;28;20194;-63
2022/09/03 11:44:43;;;;;;;4.88;3.33;;;;;;;25.82;69.98;95033.56;5030448;28;20565;-63
2022/09/03 11:47:24;;;;;;;3.78;3.47;;;;;;;25.82;70.04;95038.78;5030251;28;20204;-63
2022/09/03 11:49:52;;;;;;;3.60;3.30;;;;;;;25.45;71.05;94986.56;5012847;28;20280;-64
2022/09/03 11:52:31;;;;;;;3.70;3.40;;;;;;;25.37;70.05;94999.81;5030212;28;20240;-63
2022/09/03 11:54:57;;;;;;;4.57;3.60;;;;;;;25.83;71.78;94973.41;5030157;28;20743;-63
2022/09/03 11:57:26;;;;;;;3.90;3.60;;;;;;;25.51;69.90;95011.75;5030520;28;20217;-67
2022/09/03 11:59:51;;;;;;;4.22;3.92;;;;;;;25.23;70.62;94977.50;5030078;28;20304;-63
2022/09/03 12:02:33;;;;;;;6.60;5.90;;;;;;;25.33;69.08;95016.88;5030149;28;20221;-63
2022/09/03 12:05:01;;;;;;;4.00;3.70;;;;;;;25.84;68.77;95019.28;5029691;28;20226;-64
2022/09/03 12:07:33;;;;;;;3.83;3.08;;;;;;;26.14;66.75;95048.91;5030240;28;20273;-65